sensor_id;sensor_type;location;lat;lon;timestamp;P1;durP1;ratioP1;P2;durP2;ratioP2
7729;SDS011;3908;52.310;7.230;2024-01-06T00:00:00;14.57;;;13.37;;
7729;SDS011;3908;52.310;7.230;2024-01-06T00:02:47;14.03;;;13.07;;
7729;SDS011;3908;52.310;7.230;2024-01-06T00:05:34;15.37;;;14.17;;
7729;SDS011;3908;52.310;7.230;2024-01-06T00:08:21;15.50;;;14.50;;
7729;SDS011;3908;52.310;7.230;2024-01-06T00:11:09;14.00;;;12.90;;
7729;SDS011;3908;52.310;7.230;2024-01-06T00:13:57;15.63;;;14.23;;
7729;SDS011;3908;52.310;7.230;2024-01-06T00:16:44;14.03;;;13.03;;
7729;SDS011;3908;52.310;7.230;2024-01-06T00:19:31;15.13;;;13.87;;
7729;SDS011;3908;52.310;7.230;2024-01-06T00:22:18;15.53;;;14.23;;
7729;SDS011;3908;52.310;7.230;2024-01-06T00:25:05;17.40;;;16.00;;
7729;SDS011;3908;52.310;7.230;2024-01-06T00:27:54;14.60;;;13.40;;
7729;SDS011;3908;52.310;7.230;2024-01-06T00:30:41;18.23;;;16.77;;
7729;SDS011;3908;52.310;7.230;2024-01-06T00:33:28;17.17;;;15.70;;
7729;SDS011;3908;52.310;7.230;2024-01-06T00:36:16;17.37;;;15.90;;
7729;SDS011;3908;52.310;7.230;2024-01-06T00:39:03;17.57;;;16.17;;
7729;SDS011;3908;52.310;7.230;2024-01-06T00:41:50;16.53;;;15.07;;
7729;SDS011;3908;52.310;7.230;2024-01-06T00:44:38;16.50;;;15.00;;
7729;SDS011;3908;52.310;7.230;2024-01-06T00:47:25;14.73;;;13.30;;
7729;SDS011;3908;52.310;7.230;2024-01-06T00:50:12;14.20;;;12.80;;
7729;SDS011;3908;52.310;7.230;2024-01-06T00:52:59;13.37;;;11.93;;
7729;SDS011;3908;52.310;7.230;2024-01-06T00:55:47;11.93;;;10.40;;
7729;SDS011;3908;52.310;7.230;2024-01-06T00:58:34;24.10;;;22.13;;
7729;SDS011;3908;52.310;7.230;2024-01-06T01:01:22;11.67;;;10.53;;
7729;SDS011;3908;52.310;7.230;2024-01-06T01:04:09;13.30;;;10.50;;
7729;SDS011;3908;52.310;7.230;2024-01-06T01:06:56;14.27;;;12.80;;
7729;SDS011;3908;52.310;7.230;2024-01-06T01:09:43;15.67;;;13.77;;
7729;SDS011;3908;52.310;7.230;2024-01-06T01:12:30;26.13;;;24.10;;
7729;SDS011;3908;52.310;7.230;2024-01-06T01:15:18;13.40;;;11.77;;
7729;SDS011;3908;52.310;7.230;2024-01-06T01:18:06;15.50;;;11.30;;
7729;SDS011;3908;52.310;7.230;2024-01-06T01:20:53;14.57;;;11.03;;
7729;SDS011;3908;52.310;7.230;2024-01-06T01:23:41;18.80;;;15.13;;
7729;SDS011;3908;52.310;7.230;2024-01-06T01:26:29;19.07;;;13.63;;
7729;SDS011;3908;52.310;7.230;2024-01-06T01:29:16;16.57;;;11.77;;
7729;SDS011;3908;52.310;7.230;2024-01-06T01:32:05;20.50;;;16.63;;
7729;SDS011;3908;52.310;7.230;2024-01-06T01:34:54;19.40;;;12.37;;
7729;SDS011;3908;52.310;7.230;2024-01-06T01:37:41;17.67;;;13.33;;
7729;SDS011;3908;52.310;7.230;2024-01-06T01:40:28;18.50;;;15.83;;
7729;SDS011;3908;52.310;7.230;2024-01-06T01:43:16;17.10;;;15.33;;
7729;SDS011;3908;52.310;7.230;2024-01-06T01:46:03;19.00;;;17.20;;
7729;SDS011;3908;52.310;7.230;2024-01-06T01:48:51;18.90;;;16.93;;
7729;SDS011;3908;52.310;7.230;2024-01-06T01:51:40;20.23;;;18.23;;
7729;SDS011;3908;52.310;7.230;2024-01-06T01:54:29;19.50;;;17.73;;
7729;SDS011;3908;52.310;7.230;2024-01-06T01:57:16;22.13;;;20.27;;
7729;SDS011;3908;52.310;7.230;2024-01-06T02:00:05;22.50;;;20.37;;
7729;SDS011;3908;52.310;7.230;2024-01-06T02:02:54;25.90;;;23.70;;
7729;SDS011;3908;52.310;7.230;2024-01-06T02:05:41;23.27;;;21.17;;
7729;SDS011;3908;52.310;7.230;2024-01-06T02:08:30;28.87;;;26.40;;
7729;SDS011;3908;52.310;7.230;2024-01-06T02:11:17;26.30;;;23.70;;
7729;SDS011;3908;52.310;7.230;2024-01-06T02:14:04;25.00;;;23.07;;
7729;SDS011;3908;52.310;7.230;2024-01-06T02:16:51;28.20;;;26.00;;
7729;SDS011;3908;52.310;7.230;2024-01-06T02:19:38;24.17;;;22.37;;
7729;SDS011;3908;52.310;7.230;2024-01-06T02:22:26;23.47;;;21.47;;
7729;SDS011;3908;52.310;7.230;2024-01-06T02:25:13;24.43;;;22.23;;
7729;SDS011;3908;52.310;7.230;2024-01-06T02:28:00;24.20;;;22.13;;
7729;SDS011;3908;52.310;7.230;2024-01-06T02:30:48;18.90;;;17.20;;
7729;SDS011;3908;52.310;7.230;2024-01-06T02:33:35;18.47;;;16.93;;
7729;SDS011;3908;52.310;7.230;2024-01-06T02:36:24;19.63;;;17.70;;
7729;SDS011;3908;52.310;7.230;2024-01-06T02:39:12;19.00;;;17.00;;
7729;SDS011;3908;52.310;7.230;2024-01-06T02:41:59;20.03;;;18.07;;
7729;SDS011;3908;52.310;7.230;2024-01-06T02:44:46;21.67;;;19.37;;
7729;SDS011;3908;52.310;7.230;2024-01-06T02:47:33;16.97;;;14.80;;
7729;SDS011;3908;52.310;7.230;2024-01-06T02:50:20;16.83;;;15.00;;
7729;SDS011;3908;52.310;7.230;2024-01-06T02:53:07;14.70;;;13.20;;
7729;SDS011;3908;52.310;7.230;2024-01-06T02:55:56;14.87;;;12.60;;
7729;SDS011;3908;52.310;7.230;2024-01-06T02:58:43;14.10;;;12.70;;
7729;SDS011;3908;52.310;7.230;2024-01-06T03:01:31;18.30;;;16.57;;
7729;SDS011;3908;52.310;7.230;2024-01-06T03:04:18;15.53;;;14.23;;
7729;SDS011;3908;52.310;7.230;2024-01-06T03:07:05;15.70;;;14.50;;
7729;SDS011;3908;52.310;7.230;2024-01-06T03:09:52;15.47;;;14.07;;
7729;SDS011;3908;52.310;7.230;2024-01-06T03:12:40;15.00;;;13.70;;
7729;SDS011;3908;52.310;7.230;2024-01-06T03:15:27;14.80;;;13.30;;
7729;SDS011;3908;52.310;7.230;2024-01-06T03:18:15;13.67;;;12.37;;
7729;SDS011;3908;52.310;7.230;2024-01-06T03:21:02;13.17;;;11.97;;
7729;SDS011;3908;52.310;7.230;2024-01-06T03:23:49;16.97;;;15.47;;
7729;SDS011;3908;52.310;7.230;2024-01-06T03:26:36;19.10;;;17.30;;
7729;SDS011;3908;52.310;7.230;2024-01-06T03:29:24;15.33;;;14.03;;
7729;SDS011;3908;52.310;7.230;2024-01-06T03:32:12;14.63;;;13.20;;
7729;SDS011;3908;52.310;7.230;2024-01-06T03:34:59;14.13;;;12.60;;
7729;SDS011;3908;52.310;7.230;2024-01-06T03:37:46;14.40;;;12.73;;
7729;SDS011;3908;52.310;7.230;2024-01-06T03:40:33;13.40;;;12.00;;
7729;SDS011;3908;52.310;7.230;2024-01-06T03:43:20;15.40;;;13.87;;
7729;SDS011;3908;52.310;7.230;2024-01-06T03:46:09;16.67;;;13.67;;
7729;SDS011;3908;52.310;7.230;2024-01-06T03:48:56;17.93;;;12.40;;
7729;SDS011;3908;52.310;7.230;2024-01-06T03:51:43;16.83;;;15.07;;
7729;SDS011;3908;52.310;7.230;2024-01-06T03:54:30;22.70;;;20.40;;
7729;SDS011;3908;52.310;7.230;2024-01-06T03:57:17;19.03;;;14.03;;
7729;SDS011;3908;52.310;7.230;2024-01-06T04:00:05;18.33;;;14.40;;
7729;SDS011;3908;52.310;7.230;2024-01-06T04:02:54;17.03;;;14.37;;
7729;SDS011;3908;52.310;7.230;2024-01-06T04:05:41;16.63;;;15.03;;
7729;SDS011;3908;52.310;7.230;2024-01-06T04:08:28;18.27;;;14.87;;
7729;SDS011;3908;52.310;7.230;2024-01-06T04:11:15;18.30;;;14.30;;
7729;SDS011;3908;52.310;7.230;2024-01-06T04:14:02;18.13;;;14.50;;
7729;SDS011;3908;52.310;7.230;2024-01-06T04:16:50;16.30;;;14.60;;
7729;SDS011;3908;52.310;7.230;2024-01-06T04:19:39;16.33;;;14.63;;
7729;SDS011;3908;52.310;7.230;2024-01-06T04:22:26;18.03;;;16.17;;
7729;SDS011;3908;52.310;7.230;2024-01-06T04:25:14;16.23;;;14.50;;
7729;SDS011;3908;52.310;7.230;2024-01-06T04:28:01;20.53;;;16.97;;
7729;SDS011;3908;52.310;7.230;2024-01-06T04:30:48;20.30;;;18.13;;
7729;SDS011;3908;52.310;7.230;2024-01-06T04:33:35;19.43;;;17.47;;
7729;SDS011;3908;52.310;7.230;2024-01-06T04:36:24;19.03;;;15.40;;
7729;SDS011;3908;52.310;7.230;2024-01-06T04:39:11;24.43;;;16.47;;
7729;SDS011;3908;52.310;7.230;2024-01-06T04:41:59;25.17;;;22.63;;
7729;SDS011;3908;52.310;7.230;2024-01-06T04:44:46;17.83;;;14.90;;
7729;SDS011;3908;52.310;7.230;2024-01-06T04:47:33;18.07;;;16.03;;
7729;SDS011;3908;52.310;7.230;2024-01-06T04:50:20;18.77;;;15.07;;
7729;SDS011;3908;52.310;7.230;2024-01-06T04:53:09;23.03;;;15.57;;
7729;SDS011;3908;52.310;7.230;2024-01-06T04:55:56;19.27;;;15.30;;
7729;SDS011;3908;52.310;7.230;2024-01-06T04:58:43;18.43;;;15.87;;
7729;SDS011;3908;52.310;7.230;2024-01-06T05:01:30;18.20;;;15.20;;
7729;SDS011;3908;52.310;7.230;2024-01-06T05:04:17;20.47;;;16.23;;
7729;SDS011;3908;52.310;7.230;2024-01-06T05:07:04;22.13;;;16.47;;
7729;SDS011;3908;52.310;7.230;2024-01-06T05:09:53;22.10;;;17.03;;
7729;SDS011;3908;52.310;7.230;2024-01-06T05:12:41;20.63;;;15.57;;
7729;SDS011;3908;52.310;7.230;2024-01-06T05:15:28;21.80;;;18.13;;
7729;SDS011;3908;52.310;7.230;2024-01-06T05:18:15;18.87;;;15.53;;
7729;SDS011;3908;52.310;7.230;2024-01-06T05:21:03;20.97;;;15.07;;
7729;SDS011;3908;52.310;7.230;2024-01-06T05:23:50;23.23;;;16.10;;
7729;SDS011;3908;52.310;7.230;2024-01-06T05:26:38;20.07;;;14.70;;
7729;SDS011;3908;52.310;7.230;2024-01-06T05:29:25;20.33;;;16.63;;
7729;SDS011;3908;52.310;7.230;2024-01-06T05:32:12;23.20;;;15.87;;
7729;SDS011;3908;52.310;7.230;2024-01-06T05:35:00;22.33;;;16.13;;
7729;SDS011;3908;52.310;7.230;2024-01-06T05:37:47;16.20;;;13.50;;
7729;SDS011;3908;52.310;7.230;2024-01-06T05:40:34;22.50;;;16.17;;
7729;SDS011;3908;52.310;7.230;2024-01-06T05:43:22;20.57;;;15.83;;
7729;SDS011;3908;52.310;7.230;2024-01-06T05:46:09;21.90;;;16.40;;
7729;SDS011;3908;52.310;7.230;2024-01-06T05:48:57;21.13;;;16.70;;
7729;SDS011;3908;52.310;7.230;2024-01-06T05:51:45;19.93;;;14.87;;
7729;SDS011;3908;52.310;7.230;2024-01-06T05:54:32;21.33;;;15.50;;
7729;SDS011;3908;52.310;7.230;2024-01-06T05:57:19;19.50;;;14.23;;
7729;SDS011;3908;52.310;7.230;2024-01-06T06:00:09;20.57;;;15.07;;
7729;SDS011;3908;52.310;7.230;2024-01-06T06:02:57;21.90;;;15.10;;
7729;SDS011;3908;52.310;7.230;2024-01-06T06:05:44;22.47;;;15.20;;
7729;SDS011;3908;52.310;7.230;2024-01-06T06:08:31;20.67;;;17.83;;
7729;SDS011;3908;52.310;7.230;2024-01-06T06:11:18;22.17;;;16.43;;
7729;SDS011;3908;52.310;7.230;2024-01-06T06:14:05;19.30;;;13.93;;
7729;SDS011;3908;52.310;7.230;2024-01-06T06:16:54;21.23;;;14.93;;
7729;SDS011;3908;52.310;7.230;2024-01-06T06:19:41;24.50;;;14.30;;
7729;SDS011;3908;52.310;7.230;2024-01-06T06:22:28;23.33;;;15.77;;
7729;SDS011;3908;52.310;7.230;2024-01-06T06:25:16;21.27;;;15.50;;
7729;SDS011;3908;52.310;7.230;2024-01-06T06:28:03;20.00;;;14.37;;
7729;SDS011;3908;52.310;7.230;2024-01-06T06:30:51;27.30;;;16.67;;
7729;SDS011;3908;52.310;7.230;2024-01-06T06:33:40;23.03;;;15.53;;
7729;SDS011;3908;52.310;7.230;2024-01-06T06:36:27;29.37;;;18.53;;
7729;SDS011;3908;52.310;7.230;2024-01-06T06:39:15;28.83;;;18.80;;
7729;SDS011;3908;52.310;7.230;2024-01-06T06:42:04;25.30;;;20.80;;
7729;SDS011;3908;52.310;7.230;2024-01-06T06:44:51;25.23;;;17.17;;
7729;SDS011;3908;52.310;7.230;2024-01-06T06:47:38;21.07;;;13.30;;
7729;SDS011;3908;52.310;7.230;2024-01-06T06:50:26;23.23;;;14.47;;
7729;SDS011;3908;52.310;7.230;2024-01-06T06:53:13;25.50;;;14.93;;
7729;SDS011;3908;52.310;7.230;2024-01-06T06:56:00;22.30;;;13.63;;
7729;SDS011;3908;52.310;7.230;2024-01-06T06:58:48;22.70;;;19.53;;
7729;SDS011;3908;52.310;7.230;2024-01-06T07:01:35;24.07;;;16.33;;
7729;SDS011;3908;52.310;7.230;2024-01-06T07:04:22;26.43;;;14.20;;
7729;SDS011;3908;52.310;7.230;2024-01-06T07:07:12;24.53;;;15.57;;
7729;SDS011;3908;52.310;7.230;2024-01-06T07:10:00;19.80;;;14.70;;
7729;SDS011;3908;52.310;7.230;2024-01-06T07:12:47;29.23;;;18.73;;
7729;SDS011;3908;52.310;7.230;2024-01-06T07:15:34;24.03;;;14.00;;
7729;SDS011;3908;52.310;7.230;2024-01-06T07:18:21;20.07;;;13.40;;
7729;SDS011;3908;52.310;7.230;2024-01-06T07:21:11;28.37;;;11.70;;
7729;SDS011;3908;52.310;7.230;2024-01-06T07:24:01;21.93;;;13.13;;
7729;SDS011;3908;52.310;7.230;2024-01-06T07:26:48;22.60;;;13.73;;
7729;SDS011;3908;52.310;7.230;2024-01-06T07:29:35;20.37;;;14.30;;
7729;SDS011;3908;52.310;7.230;2024-01-06T07:32:22;20.10;;;12.53;;
7729;SDS011;3908;52.310;7.230;2024-01-06T07:35:10;20.27;;;13.67;;
7729;SDS011;3908;52.310;7.230;2024-01-06T07:37:57;22.03;;;15.77;;
7729;SDS011;3908;52.310;7.230;2024-01-06T07:40:46;22.43;;;13.60;;
7729;SDS011;3908;52.310;7.230;2024-01-06T07:43:33;18.13;;;13.83;;
7729;SDS011;3908;52.310;7.230;2024-01-06T07:46:20;24.03;;;12.57;;
7729;SDS011;3908;52.310;7.230;2024-01-06T07:49:07;21.83;;;13.67;;
7729;SDS011;3908;52.310;7.230;2024-01-06T07:51:54;28.23;;;14.43;;
7729;SDS011;3908;52.310;7.230;2024-01-06T07:54:42;27.17;;;12.83;;
7729;SDS011;3908;52.310;7.230;2024-01-06T07:57:30;22.67;;;13.50;;
7729;SDS011;3908;52.310;7.230;2024-01-06T08:00:17;22.27;;;14.60;;
7729;SDS011;3908;52.310;7.230;2024-01-06T08:03:05;25.67;;;15.87;;
7729;SDS011;3908;52.310;7.230;2024-01-06T08:05:52;23.33;;;13.23;;
7729;SDS011;3908;52.310;7.230;2024-01-06T08:08:39;23.40;;;14.27;;
7729;SDS011;3908;52.310;7.230;2024-01-06T08:11:26;26.70;;;19.50;;
7729;SDS011;3908;52.310;7.230;2024-01-06T08:14:15;24.37;;;15.43;;
7729;SDS011;3908;52.310;7.230;2024-01-06T08:17:03;18.80;;;12.80;;
7729;SDS011;3908;52.310;7.230;2024-01-06T08:19:50;24.13;;;14.87;;
7729;SDS011;3908;52.310;7.230;2024-01-06T08:22:37;24.73;;;13.30;;
7729;SDS011;3908;52.310;7.230;2024-01-06T08:25:24;22.93;;;14.97;;
7729;SDS011;3908;52.310;7.230;2024-01-06T08:28:11;21.70;;;13.23;;
7729;SDS011;3908;52.310;7.230;2024-01-06T08:31:01;22.00;;;13.33;;
7729;SDS011;3908;52.310;7.230;2024-01-06T08:33:48;22.33;;;15.07;;
7729;SDS011;3908;52.310;7.230;2024-01-06T08:36:35;19.63;;;11.47;;
7729;SDS011;3908;52.310;7.230;2024-01-06T08:39:22;23.40;;;13.50;;
7729;SDS011;3908;52.310;7.230;2024-01-06T08:42:10;25.47;;;16.93;;
7729;SDS011;3908;52.310;7.230;2024-01-06T08:44:57;21.37;;;10.60;;
7729;SDS011;3908;52.310;7.230;2024-01-06T08:47:46;25.67;;;23.27;;
7729;SDS011;3908;52.310;7.230;2024-01-06T08:50:33;18.10;;;12.53;;
7729;SDS011;3908;52.310;7.230;2024-01-06T08:53:20;19.73;;;12.33;;
7729;SDS011;3908;52.310;7.230;2024-01-06T08:56:07;26.40;;;23.40;;
7729;SDS011;3908;52.310;7.230;2024-01-06T08:58:55;18.63;;;13.77;;
7729;SDS011;3908;52.310;7.230;2024-01-06T09:01:43;19.53;;;14.80;;
7729;SDS011;3908;52.310;7.230;2024-01-06T09:04:31;18.30;;;15.23;;
7729;SDS011;3908;52.310;7.230;2024-01-06T09:07:18;26.20;;;23.40;;
7729;SDS011;3908;52.310;7.230;2024-01-06T09:10:05;19.60;;;12.23;;
7729;SDS011;3908;52.310;7.230;2024-01-06T09:12:55;17.80;;;11.63;;
7729;SDS011;3908;52.310;7.230;2024-01-06T09:15:42;19.70;;;17.50;;
7729;SDS011;3908;52.310;7.230;2024-01-06T09:18:29;20.57;;;16.73;;
7729;SDS011;3908;52.310;7.230;2024-01-06T09:21:18;22.67;;;14.47;;
7729;SDS011;3908;52.310;7.230;2024-01-06T09:24:05;25.23;;;19.33;;
7729;SDS011;3908;52.310;7.230;2024-01-06T09:26:52;18.90;;;11.43;;
7729;SDS011;3908;52.310;7.230;2024-01-06T09:29:40;18.87;;;11.50;;
7729;SDS011;3908;52.310;7.230;2024-01-06T09:32:27;19.50;;;12.60;;
7729;SDS011;3908;52.310;7.230;2024-01-06T09:35:14;24.80;;;13.20;;
7729;SDS011;3908;52.310;7.230;2024-01-06T09:38:02;25.17;;;12.23;;
7729;SDS011;3908;52.310;7.230;2024-01-06T09:40:49;19.97;;;12.97;;
7729;SDS011;3908;52.310;7.230;2024-01-06T09:43:37;19.23;;;11.50;;
7729;SDS011;3908;52.310;7.230;2024-01-06T09:46:25;20.03;;;15.13;;
7729;SDS011;3908;52.310;7.230;2024-01-06T09:49:14;20.40;;;13.33;;
7729;SDS011;3908;52.310;7.230;2024-01-06T09:52:03;19.67;;;13.80;;
7729;SDS011;3908;52.310;7.230;2024-01-06T09:54:56;16.80;;;10.27;;
7729;SDS011;3908;52.310;7.230;2024-01-06T09:57:45;17.00;;;12.40;;
7729;SDS011;3908;52.310;7.230;2024-01-06T10:00:32;20.40;;;12.67;;
7729;SDS011;3908;52.310;7.230;2024-01-06T10:03:19;17.60;;;11.93;;
7729;SDS011;3908;52.310;7.230;2024-01-06T10:06:06;17.87;;;11.97;;
7729;SDS011;3908;52.310;7.230;2024-01-06T10:08:55;20.37;;;12.27;;
7729;SDS011;3908;52.310;7.230;2024-01-06T10:11:43;16.33;;;10.57;;
7729;SDS011;3908;52.310;7.230;2024-01-06T10:14:30;16.30;;;13.77;;
7729;SDS011;3908;52.310;7.230;2024-01-06T10:17:17;17.10;;;11.80;;
7729;SDS011;3908;52.310;7.230;2024-01-06T10:20:06;17.13;;;12.43;;
7729;SDS011;3908;52.310;7.230;2024-01-06T10:22:55;16.17;;;10.87;;
7729;SDS011;3908;52.310;7.230;2024-01-06T10:25:42;20.03;;;12.23;;
7729;SDS011;3908;52.310;7.230;2024-01-06T10:28:30;17.57;;;12.53;;
7729;SDS011;3908;52.310;7.230;2024-01-06T10:31:18;16.70;;;11.13;;
7729;SDS011;3908;52.310;7.230;2024-01-06T10:34:05;19.40;;;11.67;;
7729;SDS011;3908;52.310;7.230;2024-01-06T10:36:52;24.63;;;11.73;;
7729;SDS011;3908;52.310;7.230;2024-01-06T10:39:40;18.40;;;12.63;;
7729;SDS011;3908;52.310;7.230;2024-01-06T10:42:27;18.57;;;11.90;;
7729;SDS011;3908;52.310;7.230;2024-01-06T10:45:17;21.53;;;13.50;;
7729;SDS011;3908;52.310;7.230;2024-01-06T10:48:05;23.87;;;16.00;;
7729;SDS011;3908;52.310;7.230;2024-01-06T10:50:53;19.67;;;13.00;;
7729;SDS011;3908;52.310;7.230;2024-01-06T10:53:42;21.77;;;15.13;;
7729;SDS011;3908;52.310;7.230;2024-01-06T10:56:29;21.43;;;15.33;;
7729;SDS011;3908;52.310;7.230;2024-01-06T10:59:17;23.30;;;17.07;;
7729;SDS011;3908;52.310;7.230;2024-01-06T11:02:09;22.27;;;15.90;;
7729;SDS011;3908;52.310;7.230;2024-01-06T11:04:58;26.47;;;15.90;;
7729;SDS011;3908;52.310;7.230;2024-01-06T11:07:46;26.13;;;14.73;;
7729;SDS011;3908;52.310;7.230;2024-01-06T11:10:37;25.90;;;15.97;;
7729;SDS011;3908;52.310;7.230;2024-01-06T11:13:25;23.17;;;15.07;;
7729;SDS011;3908;52.310;7.230;2024-01-06T11:16:15;21.53;;;15.67;;
7729;SDS011;3908;52.310;7.230;2024-01-06T11:22:35;23.40;;;13.53;;
7729;SDS011;3908;52.310;7.230;2024-01-06T11:25:25;23.70;;;14.67;;
7729;SDS011;3908;52.310;7.230;2024-01-06T11:28:13;22.30;;;15.07;;
7729;SDS011;3908;52.310;7.230;2024-01-06T11:31:07;23.40;;;16.53;;
7729;SDS011;3908;52.310;7.230;2024-01-06T11:33:55;22.93;;;15.43;;
7729;SDS011;3908;52.310;7.230;2024-01-06T11:36:44;23.33;;;15.03;;
7729;SDS011;3908;52.310;7.230;2024-01-06T11:39:35;24.97;;;16.57;;
7729;SDS011;3908;52.310;7.230;2024-01-06T11:42:31;23.60;;;16.63;;
7729;SDS011;3908;52.310;7.230;2024-01-06T11:45:18;23.23;;;15.00;;
7729;SDS011;3908;52.310;7.230;2024-01-06T11:48:07;20.13;;;15.13;;
7729;SDS011;3908;52.310;7.230;2024-01-06T11:50:55;18.57;;;13.13;;
7729;SDS011;3908;52.310;7.230;2024-01-06T11:53:45;19.70;;;14.77;;
7729;SDS011;3908;52.310;7.230;2024-01-06T11:56:33;17.60;;;13.80;;
7729;SDS011;3908;52.310;7.230;2024-01-06T11:59:20;19.63;;;14.90;;
7729;SDS011;3908;52.310;7.230;2024-01-06T12:02:10;21.37;;;14.33;;
7729;SDS011;3908;52.310;7.230;2024-01-06T12:04:58;17.07;;;14.30;;
7729;SDS011;3908;52.310;7.230;2024-01-06T12:07:52;19.27;;;13.93;;
7729;SDS011;3908;52.310;7.230;2024-01-06T12:10:42;19.53;;;12.60;;
7729;SDS011;3908;52.310;7.230;2024-01-06T12:13:30;19.23;;;14.43;;
7729;SDS011;3908;52.310;7.230;2024-01-06T12:16:17;19.20;;;14.80;;
7729;SDS011;3908;52.310;7.230;2024-01-06T12:19:04;20.00;;;14.53;;
7729;SDS011;3908;52.310;7.230;2024-01-06T12:21:51;18.40;;;13.63;;
7729;SDS011;3908;52.310;7.230;2024-01-06T12:24:39;24.17;;;17.63;;
7729;SDS011;3908;52.310;7.230;2024-01-06T12:27:28;25.87;;;16.87;;
7729;SDS011;3908;52.310;7.230;2024-01-06T12:30:15;24.23;;;15.67;;
7729;SDS011;3908;52.310;7.230;2024-01-06T12:33:04;25.83;;;18.80;;
7729;SDS011;3908;52.310;7.230;2024-01-06T12:35:51;24.87;;;15.20;;
7729;SDS011;3908;52.310;7.230;2024-01-06T12:38:38;22.30;;;15.60;;
7729;SDS011;3908;52.310;7.230;2024-01-06T12:41:28;21.53;;;15.40;;
7729;SDS011;3908;52.310;7.230;2024-01-06T12:44:16;21.10;;;15.80;;
7729;SDS011;3908;52.310;7.230;2024-01-06T12:47:03;20.60;;;16.93;;
7729;SDS011;3908;52.310;7.230;2024-01-06T12:49:51;20.93;;;17.57;;
7729;SDS011;3908;52.310;7.230;2024-01-06T12:52:38;25.57;;;18.17;;
7729;SDS011;3908;52.310;7.230;2024-01-06T12:55:25;30.50;;;18.33;;
7729;SDS011;3908;52.310;7.230;2024-01-06T12:58:12;27.53;;;18.33;;
7729;SDS011;3908;52.310;7.230;2024-01-06T13:01:01;23.47;;;17.87;;
7729;SDS011;3908;52.310;7.230;2024-01-06T13:03:48;20.73;;;14.90;;
7729;SDS011;3908;52.310;7.230;2024-01-06T13:06:35;22.83;;;20.17;;
7729;SDS011;3908;52.310;7.230;2024-01-06T13:09:22;24.50;;;16.20;;
7729;SDS011;3908;52.310;7.230;2024-01-06T13:12:09;28.47;;;16.57;;
7729;SDS011;3908;52.310;7.230;2024-01-06T13:14:56;25.47;;;17.60;;
7729;SDS011;3908;52.310;7.230;2024-01-06T13:17:45;28.83;;;18.73;;
7729;SDS011;3908;52.310;7.230;2024-01-06T13:20:33;26.83;;;16.87;;
7729;SDS011;3908;52.310;7.230;2024-01-06T13:23:22;26.07;;;17.07;;
7729;SDS011;3908;52.310;7.230;2024-01-06T13:26:10;26.30;;;16.73;;
7729;SDS011;3908;52.310;7.230;2024-01-06T13:28:57;23.23;;;19.93;;
7729;SDS011;3908;52.310;7.230;2024-01-06T13:31:44;35.53;;;31.77;;
7729;SDS011;3908;52.310;7.230;2024-01-06T13:34:33;27.37;;;19.57;;
7729;SDS011;3908;52.310;7.230;2024-01-06T13:37:20;28.67;;;18.60;;
7729;SDS011;3908;52.310;7.230;2024-01-06T13:40:08;26.10;;;19.13;;
7729;SDS011;3908;52.310;7.230;2024-01-06T13:42:55;33.27;;;19.67;;
7729;SDS011;3908;52.310;7.230;2024-01-06T13:45:43;28.63;;;19.27;;
7729;SDS011;3908;52.310;7.230;2024-01-06T13:48:30;29.70;;;18.60;;
7729;SDS011;3908;52.310;7.230;2024-01-06T13:51:19;32.97;;;19.30;;
7729;SDS011;3908;52.310;7.230;2024-01-06T13:54:06;36.30;;;23.40;;
7729;SDS011;3908;52.310;7.230;2024-01-06T13:56:53;33.13;;;20.23;;
7729;SDS011;3908;52.310;7.230;2024-01-06T13:59:40;38.17;;;20.50;;
7729;SDS011;3908;52.310;7.230;2024-01-06T14:02:27;34.47;;;21.83;;
7729;SDS011;3908;52.310;7.230;2024-01-06T14:05:15;40.63;;;23.73;;
7729;SDS011;3908;52.310;7.230;2024-01-06T14:08:04;35.60;;;21.43;;
7729;SDS011;3908;52.310;7.230;2024-01-06T14:10:52;41.00;;;23.30;;
7729;SDS011;3908;52.310;7.230;2024-01-06T14:13:41;36.50;;;24.73;;
7729;SDS011;3908;52.310;7.230;2024-01-06T14:16:28;35.80;;;24.33;;
7729;SDS011;3908;52.310;7.230;2024-01-06T14:19:19;40.00;;;21.57;;
7729;SDS011;3908;52.310;7.230;2024-01-06T14:22:06;36.20;;;22.10;;
7729;SDS011;3908;52.310;7.230;2024-01-06T14:25:01;34.20;;;21.27;;
7729;SDS011;3908;52.310;7.230;2024-01-06T14:27:48;39.27;;;24.83;;
7729;SDS011;3908;52.310;7.230;2024-01-06T14:30:36;38.40;;;20.70;;
7729;SDS011;3908;52.310;7.230;2024-01-06T14:33:24;44.77;;;29.83;;
7729;SDS011;3908;52.310;7.230;2024-01-06T14:36:12;40.53;;;22.30;;
7729;SDS011;3908;52.310;7.230;2024-01-06T14:38:59;50.57;;;23.03;;
7729;SDS011;3908;52.310;7.230;2024-01-06T14:41:50;42.60;;;21.87;;
7729;SDS011;3908;52.310;7.230;2024-01-06T14:44:38;49.07;;;22.27;;
7729;SDS011;3908;52.310;7.230;2024-01-06T14:47:25;47.27;;;23.50;;
7729;SDS011;3908;52.310;7.230;2024-01-06T14:50:12;50.33;;;25.47;;
7729;SDS011;3908;52.310;7.230;2024-01-06T14:52:59;50.97;;;22.97;;
7729;SDS011;3908;52.310;7.230;2024-01-06T14:55:46;41.83;;;21.80;;
7729;SDS011;3908;52.310;7.230;2024-01-06T14:58:34;45.37;;;22.47;;
7729;SDS011;3908;52.310;7.230;2024-01-06T15:01:21;44.60;;;25.27;;
7729;SDS011;3908;52.310;7.230;2024-01-06T15:04:09;49.17;;;27.70;;
7729;SDS011;3908;52.310;7.230;2024-01-06T15:06:56;41.43;;;21.13;;
7729;SDS011;3908;52.310;7.230;2024-01-06T15:09:43;38.30;;;22.30;;
7729;SDS011;3908;52.310;7.230;2024-01-06T15:12:30;36.03;;;19.50;;
7729;SDS011;3908;52.310;7.230;2024-01-06T15:15:19;37.87;;;24.80;;
7729;SDS011;3908;52.310;7.230;2024-01-06T15:18:06;38.63;;;19.80;;
7729;SDS011;3908;52.310;7.230;2024-01-06T15:20:54;44.77;;;21.03;;
7729;SDS011;3908;52.310;7.230;2024-01-06T15:23:42;45.97;;;21.87;;
7729;SDS011;3908;52.310;7.230;2024-01-06T15:26:30;38.97;;;27.67;;
7729;SDS011;3908;52.310;7.230;2024-01-06T15:29:17;42.23;;;20.37;;
7729;SDS011;3908;52.310;7.230;2024-01-06T15:32:06;34.77;;;18.57;;
7729;SDS011;3908;52.310;7.230;2024-01-06T15:34:53;45.63;;;20.93;;
7729;SDS011;3908;52.310;7.230;2024-01-06T15:37:40;40.97;;;21.90;;
7729;SDS011;3908;52.310;7.230;2024-01-06T15:40:27;39.43;;;24.63;;
7729;SDS011;3908;52.310;7.230;2024-01-06T15:43:15;46.43;;;23.63;;
7729;SDS011;3908;52.310;7.230;2024-01-06T15:46:02;43.03;;;27.20;;
7729;SDS011;3908;52.310;7.230;2024-01-06T15:48:50;37.90;;;21.03;;
7729;SDS011;3908;52.310;7.230;2024-01-06T15:51:37;40.07;;;20.40;;
7729;SDS011;3908;52.310;7.230;2024-01-06T15:54:25;35.07;;;22.47;;
7729;SDS011;3908;52.310;7.230;2024-01-06T15:57:13;37.50;;;22.27;;
7729;SDS011;3908;52.310;7.230;2024-01-06T16:00:00;36.47;;;22.40;;
7729;SDS011;3908;52.310;7.230;2024-01-06T16:02:53;39.83;;;24.37;;
7729;SDS011;3908;52.310;7.230;2024-01-06T16:05:42;35.13;;;20.07;;
7729;SDS011;3908;52.310;7.230;2024-01-06T16:08:29;38.77;;;21.37;;
7729;SDS011;3908;52.310;7.230;2024-01-06T16:11:17;41.37;;;22.13;;
7729;SDS011;3908;52.310;7.230;2024-01-06T16:14:04;39.47;;;19.73;;
7729;SDS011;3908;52.310;7.230;2024-01-06T16:16:51;42.13;;;21.47;;
7729;SDS011;3908;52.310;7.230;2024-01-06T16:19:38;41.97;;;26.07;;
7729;SDS011;3908;52.310;7.230;2024-01-06T16:22:27;34.97;;;18.10;;
7729;SDS011;3908;52.310;7.230;2024-01-06T16:25:14;39.20;;;22.87;;
7729;SDS011;3908;52.310;7.230;2024-01-06T16:28:01;36.17;;;19.83;;
7729;SDS011;3908;52.310;7.230;2024-01-06T16:30:48;40.40;;;24.47;;
7729;SDS011;3908;52.310;7.230;2024-01-06T16:33:36;40.83;;;23.20;;
7729;SDS011;3908;52.310;7.230;2024-01-06T16:36:23;31.10;;;17.47;;
7729;SDS011;3908;52.310;7.230;2024-01-06T16:39:11;39.17;;;21.63;;
7729;SDS011;3908;52.310;7.230;2024-01-06T16:41:59;38.17;;;21.43;;
7729;SDS011;3908;52.310;7.230;2024-01-06T16:44:46;43.90;;;20.13;;
7729;SDS011;3908;52.310;7.230;2024-01-06T16:47:33;33.57;;;19.43;;
7729;SDS011;3908;52.310;7.230;2024-01-06T16:50:20;39.57;;;19.63;;
7729;SDS011;3908;52.310;7.230;2024-01-06T16:53:07;36.87;;;18.90;;